Yang Li Hu — BOGE — position and weather

sailwx.info

Track history (hours):
 
Tides and Currents Weather Stations Pressure Air Temp Water Temp Dewpoint Dewpoint Depression Visibility Wind Speed Wind Dir Waves Ship Positions

Yang Li Hu

Last reported at 2016-Nov-26 05:33 UTC. Time now 2016-Dec-09 04:01 UTC.
Position N 34°10' E 134°58'.
Warning: this ship's position is 12 days out of date.

Length 244 m; draft 12.7 m.

Type: Tanker. MMSI: 413975000.

Date/timePositionNaut miles runAvg speedWind from/ knotsBaromVisibWave heightAir tempDewpointWater temp
2016-Nov-26 05:33N 34°10' E 134°58'1111.0
2016-Nov-26 04:31N 34°21' E 135°00'1212.9
2016-Nov-26 03:33N 34°29' E 135°12'1110.9
2016-Nov-26 02:33N 34°33' E 135°24'2 0.1
2016-Nov-25 04:33N 34°33' E 135°25'4 4.3
2016-Nov-25 03:32N 34°33' E 135°20'1010.5
2016-Nov-25 02:33N 34°27' E 135°10'1111.4
2016-Nov-25 01:33N 34°19' E 135°00'9 9.5
2016-Nov-25 00:33N 34°10' E 134°60'8 7.4
2016-Nov-24 23:32N 34°02' E 134°58'  
Track history (hours):
 
Tides and Currents Weather Stations Pressure Air Temp Water Temp Dewpoint Dewpoint Depression Visibility Wind Speed Wind Dir Waves Ship Positions

Yang Li Hu

Last reported at 2016-Nov-26 05:33 UTC. Time now 2016-Dec-09 04:01 UTC.
Position N 34°10' E 134°58'.
Warning: this ship's position is 12 days out of date.

Length 244 m; draft 12.7 m.

Type: Tanker. MMSI: 413975000.

Date/timePositionNaut miles runAvg speedWind from/ knotsBaromVisibWave heightAir tempDewpointWater temp
2016-Nov-26 05:33N 34°10' E 134°58'1111.0
2016-Nov-26 04:31N 34°21' E 135°00'1212.9
2016-Nov-26 03:33N 34°29' E 135°12'1110.9
2016-Nov-26 02:33N 34°33' E 135°24'2 0.1
2016-Nov-25 04:33N 34°33' E 135°25'4 4.3
2016-Nov-25 03:32N 34°33' E 135°20'1010.5
2016-Nov-25 02:33N 34°27' E 135°10'1111.4
2016-Nov-25 01:33N 34°19' E 135°00'9 9.5
2016-Nov-25 00:33N 34°10' E 134°60'8 7.4
2016-Nov-24 23:32N 34°02' E 134°58'  

Dump ship's entire track history